Terminal Aerodrome Forecast
Issued by NWS Northern Indiana

Home | Current Version | Previous Version | Graphics & Text | Print | Product List | Glossary On
Versions: 1 2 3 4 5 6 7 8 9 10 11 12 13 14 15 16 17 18 19 20 21 22
090
FTUS43 KIWX 210520
TAFFWA
TAF
KFWA 210520Z 2106/2206 VRB03KT P6SM BKN120
      TEMPO 2108/2111 P6SM TSRA BKN060CB
     FM211100 VRB03KT P6SM BKN200
     FM211500 23007KT P6SM SCT030 BKN110
     FM211800 24007KT P6SM VCTS SCT030CB BKN110
     FM212300 21006KT P6SM BKN200=

USA.gov is the U.S. government's official web portal to all federal, state and local government web resources and services.